createdAt,value
2018-05-24T00:00:50.006Z,17.67
2018-05-24T00:01:49.754Z,17.63
2018-05-24T00:02:49.995Z,17.63
2018-05-24T00:03:50.249Z,17.67
2018-05-24T00:04:49.781Z,17.57
2018-05-24T00:05:50.266Z,17.6
2018-05-24T00:06:50.014Z,17.52
2018-05-24T00:07:50.162Z,17.54
2018-05-24T00:08:49.991Z,17.56
2018-05-24T00:09:50.289Z,17.52
2018-05-24T00:10:50.347Z,17.57
2018-05-24T00:11:50.004Z,17.51
2018-05-24T00:12:50.009Z,17.48
2018-05-24T00:13:49.997Z,17.48
2018-05-24T00:14:50.280Z,17.41
2018-05-24T00:15:50.008Z,17.39
2018-05-24T00:16:50.280Z,17.36
2018-05-24T00:17:49.756Z,17.34
2018-05-24T00:18:50.270Z,17.38
2018-05-24T00:19:50.046Z,17.33
2018-05-24T00:20:50.270Z,17.34
2018-05-24T00:21:50.026Z,17.33
2018-05-24T00:22:50.264Z,17.42
2018-05-24T00:23:49.757Z,17.31
2018-05-24T00:24:49.758Z,17.39
2018-05-24T00:25:50.008Z,17.34
2018-05-24T00:26:50.278Z,17.31
2018-05-24T00:27:50.296Z,17.36
2018-05-24T00:28:54.760Z,17.33
2018-05-24T00:29:50.284Z,17.36
2018-05-24T00:30:50.033Z,17.31
2018-05-24T00:31:50.015Z,17.26
2018-05-24T00:32:50.277Z,17.3
2018-05-24T00:33:50.006Z,17.22
2018-05-24T00:34:50.283Z,17.22
2018-05-24T00:35:50.270Z,17.19
2018-05-24T00:36:50.020Z,17.24
2018-05-24T00:37:49.761Z,17.2
2018-05-24T00:38:50.296Z,17.22
2018-05-24T00:39:50.277Z,17.16
2018-05-24T00:40:50.020Z,17.23
2018-05-24T00:41:50.263Z,17.2
2018-05-24T00:42:50.017Z,17.22
2018-05-24T00:43:49.758Z,17.16
2018-05-24T00:44:50.027Z,17.27
2018-05-24T00:45:49.776Z,17.2
2018-05-24T00:46:50.331Z,17.2
2018-05-24T00:47:50.020Z,17.27
2018-05-24T00:48:50.016Z,17.3
2018-05-24T00:49:50.290Z,17.26
2018-05-24T00:50:50.373Z,17.33
2018-05-24T00:51:50.304Z,17.36
2018-05-24T00:52:50.031Z,17.31
2018-05-24T00:53:50.021Z,17.31
2018-05-24T00:54:50.188Z,17.23
2018-05-24T00:55:50.024Z,17.38
2018-05-24T00:56:50.029Z,17.22
2018-05-24T00:57:50.288Z,17.3
2018-05-24T00:58:50.287Z,17.23
2018-05-24T00:59:49.777Z,17.27
2018-05-24T01:00:49.769Z,17.26
2018-05-24T01:01:50.287Z,17.24
2018-05-24T01:02:50.293Z,17.23
2018-05-24T01:03:49.773Z,17.22
2018-05-24T01:04:50.024Z,17.19
2018-05-24T01:05:50.074Z,17.11
2018-05-24T01:06:50.016Z,17.2
2018-05-24T01:07:50.033Z,17.11
2018-05-24T01:08:50.021Z,17.11
2018-05-24T01:09:49.778Z,17.19
2018-05-24T01:10:49.773Z,17.11
2018-05-24T01:11:49.781Z,17.2
2018-05-24T01:12:49.773Z,17.2
2018-05-24T01:13:50.026Z,17.22
2018-05-24T01:14:50.347Z,17.22
2018-05-24T01:15:50.123Z,17.16
2018-05-24T01:16:50.038Z,17.29
2018-05-24T01:17:50.085Z,17.29
2018-05-24T01:18:50.299Z,17.27
2018-05-24T01:19:50.030Z,17.3
2018-05-24T01:20:50.030Z,17.33
2018-05-24T01:21:50.045Z,17.3
2018-05-24T01:22:50.035Z,17.44
2018-05-24T01:23:49.782Z,17.42
2018-05-24T01:24:50.029Z,17.45
2018-05-24T01:25:50.299Z,17.36
2018-05-24T01:26:50.036Z,17.34
2018-05-24T01:27:50.031Z,17.3
2018-05-24T01:28:50.039Z,17.27
2018-05-24T01:29:50.037Z,17.44
2018-05-24T01:30:50.302Z,17.42
2018-05-24T01:31:49.777Z,17.39
2018-05-24T01:32:49.781Z,17.42
2018-05-24T01:33:50.299Z,17.3
2018-05-24T01:34:50.047Z,17.29
2018-05-24T01:35:49.787Z,17.31
2018-05-24T01:36:50.034Z,17.2
2018-05-24T01:37:50.044Z,17.16
2018-05-24T01:38:50.294Z,17.27
2018-05-24T01:39:50.305Z,17.19
2018-05-24T01:40:50.044Z,17.16
2018-05-24T01:41:50.036Z,17.16
2018-05-24T01:42:50.036Z,17.19
2018-05-24T01:43:50.035Z,17.15
2018-05-24T01:44:50.374Z,17.16
2018-05-24T01:45:50.306Z,17.16
2018-05-24T01:46:50.043Z,17.22
2018-05-24T01:47:50.064Z,17.15
2018-05-24T01:48:50.315Z,17.24
2018-05-24T01:49:50.304Z,17.23
2018-05-24T01:50:50.297Z,17.23
2018-05-24T01:51:50.055Z,17.19
2018-05-24T01:52:50.054Z,17.24
2018-05-24T01:53:50.034Z,17.19
2018-05-24T01:54:50.061Z,17.15
2018-05-24T01:55:50.304Z,17.19
2018-05-24T01:56:50.301Z,17.22
2018-05-24T01:57:50.062Z,17.26
2018-05-24T01:58:50.044Z,17.16
2018-05-24T01:59:50.527Z,17.24
2018-05-24T02:00:50.043Z,17.23
2018-05-24T02:01:50.316Z,17.29
2018-05-24T02:02:49.803Z,17.33
2018-05-24T02:03:50.044Z,17.31
2018-05-24T02:04:50.059Z,17.3
2018-05-24T02:05:50.315Z,17.3
2018-05-24T02:06:50.051Z,17.33
2018-05-24T02:07:49.796Z,17.3
2018-05-24T02:08:50.057Z,17.3
2018-05-24T02:09:50.053Z,17.39
2018-05-24T02:10:50.054Z,17.34
2018-05-24T02:11:50.052Z,17.3
2018-05-24T02:12:50.049Z,17.39
2018-05-24T02:13:50.312Z,17.38
2018-05-24T02:14:50.325Z,17.31
2018-05-24T02:15:50.318Z,17.29
2018-05-24T02:16:50.358Z,17.34
2018-05-24T02:17:50.318Z,17.38
2018-05-24T02:18:50.310Z,17.34
2018-05-24T02:19:50.050Z,17.34
2018-05-24T02:20:50.068Z,17.42
2018-05-24T02:21:50.342Z,17.34
2018-05-24T02:22:50.054Z,17.33
2018-05-24T02:23:50.054Z,17.45
2018-05-24T02:24:49.802Z,17.36
2018-05-24T02:25:50.049Z,17.33
2018-05-24T02:26:50.055Z,17.42
2018-05-24T02:27:49.800Z,17.29
2018-05-24T02:28:50.059Z,17.31
2018-05-24T02:29:50.311Z,17.3
2018-05-24T02:30:50.323Z,17.27
2018-05-24T02:31:50.097Z,17.3
2018-05-24T02:32:50.334Z,17.19
2018-05-24T02:33:50.316Z,17.19
2018-05-24T02:34:50.322Z,17.27
2018-05-24T02:35:50.638Z,17.27
2018-05-24T02:36:50.066Z,17.31
2018-05-24T02:37:50.381Z,17.34
2018-05-24T02:38:50.079Z,17.33
2018-05-24T02:39:50.319Z,17.36
2018-05-24T02:40:50.330Z,17.34
2018-05-24T02:41:50.664Z,17.3
2018-05-24T02:42:50.065Z,17.23
2018-05-24T02:43:50.337Z,17.23
2018-05-24T02:44:50.122Z,17.19
2018-05-24T02:45:50.069Z,17.19
2018-05-24T02:46:50.074Z,17.15
2018-05-24T02:47:50.060Z,17.2
2018-05-24T02:48:50.337Z,17.08
2018-05-24T02:49:49.817Z,17.05
2018-05-24T02:50:50.324Z,17.05
2018-05-24T02:51:50.328Z,17.12
2018-05-24T02:52:50.073Z,17.01
2018-05-24T02:53:50.323Z,17.02
2018-05-24T02:54:50.325Z,16.99
2018-05-24T02:55:49.816Z,16.96
2018-05-24T02:56:50.343Z,16.94
2018-05-24T02:57:50.341Z,16.93
2018-05-24T02:58:49.820Z,16.89
2018-05-24T02:59:50.111Z,16.83
2018-05-24T03:00:50.328Z,16.79
2018-05-24T03:01:50.671Z,16.81
2018-05-24T03:02:50.343Z,16.9
2018-05-24T03:03:50.386Z,16.86
2018-05-24T03:04:49.865Z,16.93
2018-05-24T03:05:50.082Z,16.74
2018-05-24T03:06:50.328Z,16.79
2018-05-24T03:07:50.082Z,16.79
2018-05-24T03:08:50.072Z,16.72
2018-05-24T03:09:50.375Z,16.72
2018-05-24T03:10:49.833Z,16.81
2018-05-24T03:11:50.093Z,16.83
2018-05-24T03:12:50.079Z,16.69
2018-05-24T03:13:50.068Z,16.69
2018-05-24T03:14:50.085Z,16.68
2018-05-24T03:15:50.329Z,16.64
2018-05-24T03:16:50.336Z,16.61
2018-05-24T03:17:50.080Z,16.61
2018-05-24T03:18:49.843Z,16.58
2018-05-24T03:19:50.070Z,16.58
2018-05-24T03:20:50.351Z,16.61
2018-05-24T03:21:50.082Z,16.61
2018-05-24T03:22:50.073Z,16.56
2018-05-24T03:23:50.338Z,16.6
2018-05-24T03:24:50.076Z,16.6
2018-05-24T03:25:50.337Z,16.68
2018-05-24T03:26:50.367Z,16.65
2018-05-24T03:27:49.837Z,16.66
2018-05-24T03:28:50.100Z,16.71
2018-05-24T03:29:50.282Z,16.71
2018-05-24T03:30:50.093Z,16.71
2018-05-24T03:31:50.337Z,16.66
2018-05-24T03:32:50.341Z,16.68
2018-05-24T03:33:50.338Z,16.69
2018-05-24T03:34:50.081Z,16.71
2018-05-24T03:35:50.091Z,16.64
2018-05-24T03:36:49.835Z,16.71
2018-05-24T03:37:50.077Z,16.75
2018-05-24T03:38:50.077Z,16.68
2018-05-24T03:39:50.093Z,16.69
2018-05-24T03:40:50.082Z,16.72
2018-05-24T03:41:50.082Z,16.71
2018-05-24T03:42:50.351Z,16.74
2018-05-24T03:43:50.088Z,16.69
2018-05-24T03:44:50.344Z,16.74
2018-05-24T03:45:50.072Z,16.69
2018-05-24T03:46:50.353Z,16.76
2018-05-24T03:47:50.340Z,16.74
2018-05-24T03:48:50.334Z,16.74
2018-05-24T03:49:50.345Z,16.69
2018-05-24T03:50:50.065Z,16.86
2018-05-24T03:51:50.072Z,16.79
2018-05-24T03:52:50.080Z,16.79
2018-05-24T03:53:50.084Z,16.75
2018-05-24T03:54:50.073Z,16.86
2018-05-24T03:55:50.079Z,16.79
2018-05-24T03:56:50.330Z,16.71
2018-05-24T03:57:50.510Z,16.76
2018-05-24T03:58:50.094Z,16.72
2018-05-24T03:59:53.377Z,16.71
2018-05-24T04:00:49.820Z,16.71
2018-05-24T04:01:50.079Z,16.74
2018-05-24T04:02:49.811Z,16.66
2018-05-24T04:03:50.339Z,16.74
2018-05-24T04:04:50.080Z,16.75
2018-05-24T04:05:50.713Z,16.76
2018-05-24T04:06:50.337Z,16.75
2018-05-24T04:07:50.076Z,16.75
2018-05-24T04:08:50.058Z,16.74
2018-05-24T04:09:50.070Z,16.78
2018-05-24T04:10:50.332Z,16.81
2018-05-24T04:11:50.079Z,16.74
2018-05-24T04:12:50.356Z,16.69
2018-05-24T04:13:50.336Z,16.69
2018-05-24T04:14:50.325Z,16.66
2018-05-24T04:15:50.419Z,16.65
2018-05-24T04:16:49.814Z,16.53
2018-05-24T04:17:50.338Z,16.66
2018-05-24T04:18:50.082Z,16.53
2018-05-24T04:19:50.062Z,16.65
2018-05-24T04:20:50.331Z,16.66
2018-05-24T04:21:50.085Z,16.69
2018-05-24T04:22:50.340Z,16.75
2018-05-24T04:23:50.080Z,16.76
2018-05-24T04:24:50.322Z,16.81
2018-05-24T04:25:50.324Z,16.72
2018-05-24T04:26:50.336Z,16.79
2018-05-24T04:27:50.332Z,16.83
2018-05-24T04:28:50.321Z,16.81
2018-05-24T04:29:50.084Z,16.89
2018-05-24T04:30:50.328Z,16.99
2018-05-24T04:31:50.063Z,17.02
2018-05-24T04:32:50.323Z,17.09
2018-05-24T04:33:50.333Z,17.06
2018-05-24T04:34:50.077Z,17.09
2018-05-24T04:35:49.816Z,17.12
2018-05-24T04:36:49.864Z,17.14
2018-05-24T04:37:50.068Z,17.19
2018-05-24T04:38:50.075Z,17.19
2018-05-24T04:39:50.080Z,17.24
2018-05-24T04:40:50.071Z,17.16
2018-05-24T04:41:49.807Z,17.24
2018-05-24T04:42:50.067Z,17.16
2018-05-24T04:43:50.063Z,17.24
2018-05-24T04:44:50.326Z,17.26
2018-05-24T04:45:50.333Z,17.23
2018-05-24T04:46:50.330Z,17.23
2018-05-24T04:47:50.320Z,17.16
2018-05-24T04:48:50.068Z,17.2
2018-05-24T04:49:50.357Z,17.3
2018-05-24T04:50:50.067Z,17.22
2018-05-24T04:51:50.075Z,17.33
2018-05-24T04:52:50.378Z,17.2
2018-05-24T04:53:50.324Z,17.15
2018-05-24T04:54:50.334Z,17.2
2018-05-24T04:55:49.807Z,17.14
2018-05-24T04:56:50.338Z,17.15
2018-05-24T04:57:50.344Z,17.16
2018-05-24T04:58:50.345Z,17.2
2018-05-24T04:59:50.080Z,17.14
2018-05-24T05:00:50.596Z,17.16
2018-05-24T05:01:50.071Z,17.23
2018-05-24T05:02:50.346Z,17.16
2018-05-24T05:03:50.335Z,17.14
2018-05-24T05:04:50.356Z,17.14
2018-05-24T05:05:50.348Z,17.14
2018-05-24T05:06:50.075Z,17.14
2018-05-24T05:07:50.349Z,17.31
2018-05-24T05:08:49.820Z,17.29
2018-05-24T05:09:50.075Z,17.38
2018-05-24T05:10:50.081Z,17.34
2018-05-24T05:11:50.347Z,17.34
2018-05-24T05:12:50.350Z,17.38
2018-05-24T05:13:50.342Z,17.38
2018-05-24T05:14:50.599Z,17.49
2018-05-24T05:15:50.093Z,17.54
2018-05-24T05:16:49.842Z,17.56
2018-05-24T05:17:50.083Z,17.54
2018-05-24T05:18:50.086Z,17.59
2018-05-24T05:19:50.099Z,17.56
2018-05-24T05:20:50.110Z,17.52
2018-05-24T05:21:50.090Z,17.46
2018-05-24T05:22:50.091Z,17.52
2018-05-24T05:23:50.087Z,17.59
2018-05-24T05:24:50.342Z,17.54
2018-05-24T05:25:51.142Z,17.68
2018-05-24T05:26:50.353Z,17.65
2018-05-24T05:27:50.425Z,17.65
2018-05-24T05:28:50.348Z,17.59
2018-05-24T05:29:50.093Z,17.64
2018-05-24T05:30:49.832Z,17.68
2018-05-24T05:31:50.095Z,17.74
2018-05-24T05:32:50.104Z,17.72
2018-05-24T05:33:49.857Z,17.79
2018-05-24T05:34:50.375Z,17.78
2018-05-24T05:35:50.363Z,17.8
2018-05-24T05:36:50.097Z,17.76
2018-05-24T05:37:50.355Z,17.79
2018-05-24T05:38:50.096Z,17.76
2018-05-24T05:39:50.357Z,17.74
2018-05-24T05:40:50.098Z,17.7
2018-05-24T05:41:50.106Z,17.71
2018-05-24T05:42:50.362Z,17.68
2018-05-24T05:43:50.097Z,17.74
2018-05-24T05:44:50.472Z,17.76
2018-05-24T05:45:50.370Z,17.78
2018-05-24T05:46:50.123Z,17.8
2018-05-24T05:47:50.357Z,17.8
2018-05-24T05:48:50.367Z,17.9
2018-05-24T05:49:50.115Z,17.86
2018-05-24T05:50:50.363Z,17.92
2018-05-24T05:51:50.372Z,17.97
2018-05-24T05:52:50.375Z,17.92
2018-05-24T05:53:50.368Z,18
2018-05-24T05:54:50.373Z,18.01
2018-05-24T05:55:50.371Z,18.03
2018-05-24T05:56:50.369Z,18.05
2018-05-24T05:57:50.391Z,18.13
2018-05-24T05:58:50.120Z,18.1
2018-05-24T05:59:50.126Z,18.13
2018-05-24T06:00:50.384Z,18.16
2018-05-24T06:01:50.979Z,18.22
2018-05-24T06:02:50.390Z,18.23
2018-05-24T06:03:49.860Z,18.23
2018-05-24T06:04:50.123Z,18.31
2018-05-24T06:05:50.393Z,18.29
2018-05-24T06:06:50.387Z,18.23
2018-05-24T06:07:50.142Z,18.29
2018-05-24T06:08:49.874Z,18.25
2018-05-24T06:09:50.311Z,18.38
2018-05-24T06:10:50.124Z,18.38
2018-05-24T06:11:50.132Z,18.34
2018-05-24T06:12:50.400Z,18.38
2018-05-24T06:13:50.550Z,18.44
2018-05-24T06:24:10.300Z,18.33
2018-05-24T06:25:10.379Z,18.35
2018-05-24T06:26:10.300Z,18.08
2018-05-24T06:27:10.016Z,18.11
2018-05-24T06:28:09.744Z,18.15
2018-05-24T06:29:10.023Z,18.13
2018-05-24T06:30:09.817Z,18.11
2018-05-24T06:31:10.080Z,18.15
2018-05-24T06:32:09.800Z,18.01
2018-05-24T06:33:09.736Z,18.01
2018-05-24T06:34:09.738Z,18.08
2018-05-24T06:35:10.108Z,17.97
2018-05-24T06:36:10.335Z,18.03
2018-05-24T06:37:10.346Z,18.13
2018-05-24T06:38:09.761Z,18.16
2018-05-24T06:39:09.994Z,18.11
2018-05-24T06:40:10.128Z,18.22
2018-05-24T06:41:10.310Z,18.26
2018-05-24T06:42:09.801Z,18.34
2018-05-24T06:43:10.264Z,18.34
2018-05-24T06:44:09.772Z,18.28
2018-05-24T06:45:10.324Z,18.26
2018-05-24T06:46:10.015Z,18.22
2018-05-24T06:47:10.277Z,18.19
2018-05-24T06:48:10.011Z,18.26
2018-05-24T06:49:10.266Z,18.26
2018-05-24T06:50:10.313Z,18.34
2018-05-24T06:51:10.314Z,18.29
2018-05-24T06:52:10.003Z,18.33
2018-05-24T06:53:10.272Z,18.5
2018-05-24T06:54:10.269Z,18.55
2018-05-24T06:55:10.311Z,18.59
2018-05-24T06:56:10.324Z,18.68
2018-05-24T06:57:10.289Z,18.83
2018-05-24T06:58:10.009Z,18.93
2018-05-24T06:59:09.781Z,19.08
2018-05-24T07:00:10.287Z,19.18
2018-05-24T07:01:10.010Z,19.36
2018-05-24T07:02:10.008Z,19.31
2018-05-24T07:03:10.290Z,19.47
2018-05-24T07:04:10.272Z,19.48
2018-05-24T07:05:10.023Z,19.55
2018-05-24T07:06:10.310Z,19.47
2018-05-24T07:07:09.772Z,19.49
2018-05-24T07:08:10.022Z,19.73
2018-05-24T07:09:10.332Z,19.71
2018-05-24T07:10:10.387Z,19.64
2018-05-24T07:11:10.232Z,19.67
2018-05-24T07:12:10.289Z,19.49
2018-05-24T07:13:10.030Z,19.55
2018-05-24T07:14:10.034Z,19.56
2018-05-24T07:15:10.044Z,19.48
2018-05-24T07:16:10.351Z,19.63
2018-05-24T07:17:10.314Z,19.71
2018-05-24T07:18:10.044Z,19.88
2018-05-24T07:19:10.043Z,20.06
2018-05-24T07:20:10.426Z,20.24
2018-05-24T07:21:09.874Z,20.28
2018-05-24T07:22:10.068Z,20.29
2018-05-24T07:23:10.331Z,20.34
2018-05-24T07:24:10.066Z,20.48
2018-05-24T07:25:09.855Z,20.59
2018-05-24T07:26:10.059Z,20.66
2018-05-24T07:27:09.809Z,20.62
2018-05-24T07:28:10.070Z,20.6
2018-05-24T07:29:10.355Z,20.66
2018-05-24T07:30:10.078Z,20.62
2018-05-24T07:31:10.423Z,20.69
2018-05-24T07:32:09.824Z,20.66
2018-05-24T07:33:10.345Z,20.7
2018-05-24T07:34:11.152Z,20.88
2018-05-24T07:35:10.094Z,20.96
2018-05-24T07:36:10.092Z,20.92
2018-05-24T07:37:10.387Z,20.7
2018-05-24T07:38:10.382Z,20.6
2018-05-24T07:39:10.691Z,20.58
2018-05-24T07:40:10.437Z,20.39
2018-05-24T07:41:10.392Z,20.36
2018-05-24T07:42:10.369Z,20.37
2018-05-24T07:43:10.470Z,20.58
2018-05-24T07:44:10.118Z,20.58
2018-05-24T07:45:10.347Z,20.62
2018-05-24T07:46:10.473Z,20.74
2018-05-24T07:47:10.394Z,20.82
2018-05-24T07:48:09.865Z,20.9
2018-05-24T07:49:10.129Z,20.85
2018-05-24T07:50:10.156Z,20.88
2018-05-24T07:51:10.439Z,21.12
2018-05-24T07:52:10.412Z,21.35
2018-05-24T07:53:10.138Z,21.64
2018-05-24T07:54:10.432Z,21.93
2018-05-24T07:55:10.437Z,22.07
2018-05-24T07:56:10.501Z,22.32
2018-05-24T07:57:10.165Z,22.44
2018-05-24T07:58:09.909Z,22.8
2018-05-24T07:59:10.183Z,23.17
2018-05-24T08:00:10.232Z,23.37
2018-05-24T08:01:09.990Z,23.54
2018-05-24T08:02:10.187Z,23.8
2018-05-24T08:03:10.187Z,23.93
2018-05-24T08:04:09.966Z,23.93
2018-05-24T08:05:10.193Z,23.74
2018-05-24T08:06:10.025Z,23.8
2018-05-24T08:07:10.484Z,23.77
2018-05-24T08:08:10.224Z,23.63
2018-05-24T08:09:10.221Z,23.44
2018-05-24T08:10:10.545Z,23.41
2018-05-24T08:11:10.552Z,23.21
2018-05-24T08:12:10.491Z,23.13
2018-05-24T08:13:10.016Z,23.15
2018-05-24T08:14:10.250Z,23.25
2018-05-24T08:15:10.412Z,23.47
2018-05-24T08:16:10.540Z,23.54
2018-05-24T08:17:10.257Z,23.74
2018-05-24T08:18:10.258Z,24.02
2018-05-24T08:19:10.014Z,24.61
2018-05-24T08:20:10.188Z,24.88
2018-05-24T08:21:10.356Z,25.08
2018-05-24T08:22:10.549Z,25.22
2018-05-24T08:23:10.291Z,25.35
2018-05-24T08:24:10.083Z,25.33
2018-05-24T08:25:10.412Z,25.22
2018-05-24T08:26:10.347Z,25.07
2018-05-24T08:27:10.059Z,24.93
2018-05-24T08:28:10.345Z,24.86
2018-05-24T08:29:10.191Z,24.98
2018-05-24T08:30:10.561Z,25.22
2018-05-24T08:31:10.431Z,25.32
2018-05-24T08:32:10.343Z,25.41
2018-05-24T08:33:10.087Z,25.16
2018-05-24T08:34:10.097Z,25.07
2018-05-24T08:35:10.626Z,24.93
2018-05-24T08:36:10.434Z,24.89
2018-05-24T08:37:10.385Z,24.61
2018-05-24T08:38:10.388Z,24.43
2018-05-24T08:39:10.136Z,24.51
2018-05-24T08:40:11.009Z,24.48
2018-05-24T08:41:10.182Z,24.32
2018-05-24T08:42:10.151Z,24.26
2018-05-24T08:43:10.436Z,24.17
2018-05-24T08:44:10.426Z,24.14
2018-05-24T08:45:10.699Z,23.84
2018-05-24T08:46:10.184Z,23.63
2018-05-24T08:47:10.813Z,23.44
2018-05-24T08:48:10.726Z,23.43
2018-05-24T08:49:10.458Z,23.37
2018-05-24T08:50:10.278Z,23.4
2018-05-24T08:51:10.499Z,23.17
2018-05-24T08:52:10.716Z,23.15
2018-05-24T08:53:10.467Z,23.31
2018-05-24T08:54:10.732Z,23.4
2018-05-24T08:55:10.527Z,23.51
2018-05-24T08:56:10.563Z,23.47
2018-05-24T08:57:10.489Z,23.5
2018-05-24T08:58:10.488Z,23.66
2018-05-24T08:59:10.761Z,23.76
2018-05-24T09:00:10.781Z,23.86
2018-05-24T09:01:10.525Z,24.05
2018-05-24T09:02:10.520Z,24.01
2018-05-24T09:03:10.510Z,23.91
2018-05-24T09:04:11.578Z,23.96
2018-05-24T09:05:10.685Z,24.01
2018-05-24T09:06:10.830Z,24.1
2018-05-24T09:07:10.266Z,24.28
2018-05-24T09:08:10.795Z,24.35
2018-05-24T09:09:11.136Z,23.99
2018-05-24T09:10:10.456Z,23.88
2018-05-24T09:11:10.837Z,23.8
2018-05-24T09:12:10.570Z,23.77
2018-05-24T09:13:10.564Z,23.83
2018-05-24T09:14:10.823Z,24.05
2018-05-24T09:15:11.120Z,24.18
2018-05-24T09:16:10.913Z,24.4
2018-05-24T09:17:10.875Z,24.78
2018-05-24T09:18:10.601Z,24.98
2018-05-24T09:19:10.855Z,25.06
2018-05-24T09:20:10.964Z,24.98
2018-05-24T09:21:10.933Z,24.73
2018-05-24T09:22:10.862Z,24.42
2018-05-24T09:23:10.614Z,24.32
2018-05-24T09:24:10.360Z,24.13
2018-05-24T09:25:10.983Z,24.03
2018-05-24T09:26:10.896Z,23.96
2018-05-24T09:27:11.014Z,23.98
2018-05-24T09:28:10.660Z,24.23
2018-05-24T09:29:10.383Z,24.38
2018-05-24T09:30:10.782Z,24.58
2018-05-24T09:31:11.025Z,24.73
2018-05-24T09:32:10.940Z,24.84
2018-05-24T09:33:10.926Z,24.84
2018-05-24T09:34:10.958Z,24.73
2018-05-24T09:35:10.659Z,24.48
2018-05-24T09:36:10.802Z,24.32
2018-05-24T09:37:10.681Z,24.06
2018-05-24T09:38:10.683Z,23.93
2018-05-24T09:39:10.968Z,24.01
2018-05-24T09:40:11.104Z,24.08
2018-05-24T09:41:10.764Z,24.24
2018-05-24T09:42:10.815Z,24.45
2018-05-24T09:43:10.987Z,24.54
2018-05-24T09:44:10.998Z,24.6
2018-05-24T09:45:10.823Z,24.73
2018-05-24T09:46:10.477Z,24.78
2018-05-24T09:47:10.497Z,24.84
2018-05-24T09:48:10.746Z,24.95
2018-05-24T09:49:10.744Z,24.89
2018-05-24T09:50:10.808Z,24.91
2018-05-24T09:51:11.047Z,24.85
2018-05-24T09:52:10.788Z,24.92
2018-05-24T09:53:10.523Z,25.04
2018-05-24T09:54:11.050Z,25.03
2018-05-24T09:55:11.046Z,24.95
2018-05-24T09:56:10.853Z,24.98
2018-05-24T09:57:10.785Z,25.04
2018-05-24T09:58:10.541Z,25.16
2018-05-24T09:59:11.127Z,25.07
2018-05-24T10:00:10.843Z,24.96
2018-05-24T10:01:10.813Z,25.03
2018-05-24T10:02:10.555Z,25.14
2018-05-24T10:03:11.084Z,25.21
2018-05-24T10:04:10.835Z,25.16
2018-05-24T10:05:10.991Z,25.29
2018-05-24T10:06:10.849Z,25.43
2018-05-24T10:07:11.185Z,25.31
2018-05-24T10:08:10.852Z,25.22
2018-05-24T10:09:11.127Z,25.22
2018-05-24T10:10:11.091Z,25.36
2018-05-24T10:11:10.960Z,25.31
2018-05-24T10:12:11.133Z,25.21
2018-05-24T10:13:11.147Z,25.08
2018-05-24T10:14:10.889Z,25.06
2018-05-24T10:15:10.981Z,25.03
2018-05-24T10:16:11.319Z,25.01
2018-05-24T10:17:11.207Z,24.98
2018-05-24T10:18:10.920Z,25.04
2018-05-24T10:19:10.915Z,25.04
2018-05-24T10:20:10.839Z,25.1
2018-05-24T10:21:10.927Z,25.01
2018-05-24T10:22:10.925Z,24.98
2018-05-24T10:23:10.946Z,24.85
2018-05-24T10:53:29.372Z,25.01
2018-05-24T10:54:28.816Z,25.04
2018-05-24T10:55:29.088Z,25.1
2018-05-24T10:56:28.825Z,24.91
2018-05-24T10:57:29.084Z,24.8
2018-05-24T10:58:29.072Z,24.85
2018-05-24T10:59:29.371Z,24.74
2018-05-24T11:00:29.381Z,24.86
2018-05-24T11:01:29.086Z,24.78
2018-05-24T11:02:29.422Z,24.84
2018-05-24T11:03:29.614Z,24.81
2018-05-24T11:04:29.123Z,24.84
2018-05-24T11:05:29.095Z,24.77
2018-05-24T11:06:29.297Z,24.6
2018-05-24T11:07:28.873Z,24.5
2018-05-24T11:08:29.113Z,24.42
2018-05-24T11:09:28.882Z,24.29
2018-05-24T11:10:29.125Z,24.33
2018-05-24T11:11:29.132Z,24.45
2018-05-24T11:12:29.394Z,24.47
2018-05-24T11:13:29.135Z,24.61
2018-05-24T11:14:29.151Z,24.66
2018-05-24T11:15:29.419Z,24.85
2018-05-24T11:16:29.172Z,24.78
2018-05-24T11:17:28.886Z,24.93
2018-05-24T11:18:29.149Z,24.81
2018-05-24T11:19:29.174Z,24.81
2018-05-24T11:20:29.435Z,24.84
2018-05-24T11:21:29.178Z,24.74
2018-05-24T11:22:29.467Z,24.81
2018-05-24T11:23:28.960Z,24.86
2018-05-24T11:24:28.938Z,25.01
2018-05-24T11:25:29.455Z,25.03
2018-05-24T11:26:29.221Z,25.07
2018-05-24T11:27:29.496Z,25.08
2018-05-24T11:28:29.221Z,25.08
2018-05-24T11:29:29.290Z,25.08
2018-05-24T11:30:29.215Z,25.13
2018-05-24T11:31:29.243Z,25.22
2018-05-24T11:32:28.956Z,25.17
2018-05-24T11:33:29.491Z,25.23
2018-05-24T11:34:29.255Z,25.16
2018-05-24T11:35:29.498Z,24.98
2018-05-24T11:36:29.513Z,24.89
2018-05-24T11:37:28.997Z,24.77
2018-05-24T11:38:30.066Z,24.78
2018-05-24T11:39:29.263Z,24.69
2018-05-24T11:40:29.526Z,24.68
2018-05-24T11:41:29.527Z,24.61
2018-05-24T11:42:29.539Z,24.66
2018-05-24T11:43:30.004Z,24.63
2018-05-24T11:44:29.550Z,24.74
2018-05-24T11:45:29.278Z,24.85
2018-05-24T11:46:29.549Z,24.93
2018-05-24T11:47:29.317Z,24.99
2018-05-24T11:48:29.575Z,25.17
2018-05-24T11:49:29.318Z,25.18
2018-05-24T11:50:29.311Z,25.21
2018-05-24T11:51:29.309Z,25.18
2018-05-24T11:52:29.328Z,25.26
2018-05-24T11:53:29.083Z,25.38
2018-05-24T11:54:29.604Z,25.58
2018-05-24T11:55:29.330Z,25.6
2018-05-24T11:56:29.617Z,25.69
2018-05-24T11:57:29.611Z,25.84
2018-05-24T11:58:29.608Z,25.91
2018-05-24T11:59:29.349Z,26.05
2018-05-24T12:00:29.380Z,26.19
2018-05-24T12:01:29.104Z,26.16
2018-05-24T12:02:29.647Z,26.26
2018-05-24T12:03:29.111Z,26.28
2018-05-24T12:04:29.409Z,26.26
2018-05-24T12:05:29.147Z,26.21
2018-05-24T12:06:29.648Z,26.31
2018-05-24T12:07:29.148Z,26.41
2018-05-24T12:08:29.606Z,26.56
2018-05-24T12:09:29.421Z,26.62
2018-05-24T12:10:29.415Z,26.56
2018-05-24T12:11:29.673Z,26.52
2018-05-24T12:12:29.427Z,26.47
2018-05-24T12:13:29.431Z,26.38
2018-05-24T12:14:29.437Z,26.48
2018-05-24T12:15:29.701Z,26.48
2018-05-24T12:16:29.714Z,26.68
2018-05-24T12:17:29.202Z,26.65
2018-05-24T12:18:29.715Z,26.71
2018-05-24T12:19:29.737Z,26.6
2018-05-24T12:20:29.217Z,26.51
2018-05-24T12:21:29.743Z,26.33
2018-05-24T12:22:29.732Z,26.18
2018-05-24T12:23:29.753Z,25.99
2018-05-24T12:24:29.249Z,25.93
2018-05-24T12:25:29.247Z,25.98
2018-05-24T12:26:29.546Z,25.96
2018-05-24T12:27:29.541Z,26.1
2018-05-24T12:28:29.529Z,26.22
2018-05-24T12:29:29.567Z,26.37
2018-05-24T12:30:29.529Z,26.38
2018-05-24T12:31:29.351Z,26.37
2018-05-24T12:32:29.799Z,26.19
2018-05-24T12:33:29.560Z,26.03
2018-05-24T12:34:29.552Z,26.05
2018-05-24T12:35:30.180Z,25.99
2018-05-24T12:36:29.831Z,25.93
2018-05-24T12:37:29.573Z,25.77
2018-05-24T12:38:29.826Z,25.66
2018-05-24T12:39:29.319Z,25.59
2018-05-24T12:40:29.591Z,25.48
2018-05-24T12:41:29.598Z,25.25
2018-05-24T12:42:29.861Z,25.21
2018-05-24T12:43:29.618Z,25.23
2018-05-24T12:44:29.867Z,25.33
2018-05-24T12:45:29.643Z,25.47
2018-05-24T12:46:29.880Z,25.58
2018-05-24T12:47:29.621Z,25.7
2018-05-24T12:48:29.898Z,25.84
2018-05-24T12:49:29.634Z,26.05
2018-05-24T12:50:29.899Z,26.25
2018-05-24T12:51:29.920Z,26.34
2018-05-24T12:52:29.639Z,26.25
2018-05-24T12:53:29.645Z,26.36
2018-05-24T12:54:29.954Z,26.52
2018-05-24T12:55:29.925Z,26.7
2018-05-24T12:56:29.682Z,26.53
2018-05-24T12:57:29.672Z,26.31
2018-05-24T12:58:29.695Z,26.25
2018-05-24T12:59:29.684Z,26.07
2018-05-24T13:00:29.436Z,26.06
2018-05-24T13:01:29.703Z,26.06
2018-05-24T13:02:29.451Z,25.93
2018-05-24T13:03:29.468Z,25.93
2018-05-24T13:04:29.981Z,25.83
2018-05-24T13:05:29.734Z,25.7
2018-05-24T13:06:29.812Z,25.65
2018-05-24T13:07:29.738Z,25.43
2018-05-24T13:08:30.744Z,25.23
2018-05-24T13:09:29.740Z,25.14
2018-05-24T13:10:30.016Z,25.16
2018-05-24T13:11:30.025Z,25.21
2018-05-24T13:12:30.017Z,24.98
2018-05-24T13:13:29.767Z,24.93
2018-05-24T13:14:29.764Z,24.91
2018-05-24T13:15:30.040Z,24.84
2018-05-24T13:16:29.776Z,24.84
2018-05-24T13:17:29.784Z,24.98
2018-05-24T13:18:29.547Z,25.01
2018-05-24T13:19:29.799Z,25.06
2018-05-24T13:20:30.074Z,24.99
2018-05-24T13:21:29.803Z,24.88
2018-05-24T13:22:30.090Z,24.88
2018-05-24T13:23:29.815Z,24.98
2018-05-24T13:24:29.987Z,24.93
2018-05-24T13:25:29.904Z,24.8
2018-05-24T13:26:30.095Z,24.86
2018-05-24T13:27:29.830Z,24.78
2018-05-24T13:28:29.846Z,24.68
2018-05-24T13:29:30.107Z,24.48
2018-05-24T13:30:29.591Z,24.47
2018-05-24T13:31:29.851Z,24.53
2018-05-24T13:32:30.111Z,24.57
2018-05-24T13:33:29.870Z,24.54